Time;durP1;ratioP1;P1;durP2;ratioP2;P2;SDS_P1;SDS_P2;PMS_P1;PMS_P2;Temp;Humidity;BMP_temperature;BMP_pressure;BME280_temperature;BME280_humidity;BME280_pressure;Samples;Min_cycle;Max_cycle;Signal;HPM_P1;HPM_P2
2024/03/21 00:00:17;;;;;;;13.00;7.40;;;9.00;99.90;;;;;;5079319;28;20454;-64
2024/03/21 00:02:46;;;;;;;11.00;7.57;;;8.90;99.90;;;;;;5078741;28;20493;-64
2024/03/21 00:05:14;;;;;;;13.23;8.07;;;8.90;99.90;;;;;;5077425;28;20492;-64
2024/03/21 00:07:45;;;;;;;9.60;8.10;;;8.80;99.90;;;;;;5077882;28;20507;-64
2024/03/21 00:10:13;;;;;;;12.63;8.37;;;8.90;99.90;;;;;;5079001;28;20922;-64
2024/03/21 00:12:39;;;;;;;15.33;9.10;;;8.90;99.90;;;;;;5078285;28;20950;-64
2024/03/21 00:15:08;;;;;;;10.53;8.37;;;8.80;99.90;;;;;;5062503;28;20469;-64
2024/03/21 00:17:34;;;;;;;11.90;7.73;;;8.80;99.90;;;;;;5058803;28;20492;-64
2024/03/21 00:20:04;;;;;;;11.13;7.70;;;8.70;99.90;;;;;;5058552;28;20462;-64
2024/03/21 00:22:31;;;;;;;9.77;8.17;;;8.80;99.90;;;;;;5058300;28;20774;-64
2024/03/21 00:24:59;;;;;;;12.57;7.73;;;8.60;99.90;;;;;;5058494;28;20853;-64
2024/03/21 00:27:26;;;;;;;8.63;7.40;;;8.50;99.90;;;;;;5058070;28;20827;-64
2024/03/21 00:29:53;;;;;;;9.63;7.30;;;8.50;99.90;;;;;;5058580;28;20504;-65
2024/03/21 00:32:20;;;;;;;10.57;7.47;;;8.50;99.90;;;;;;5058325;28;20539;-64
2024/03/21 00:34:47;;;;;;;10.03;7.83;;;8.40;99.90;;;;;;5058260;28;20583;-64
2024/03/21 00:37:13;;;;;;;9.00;7.30;;;8.40;99.90;;;;;;5057617;28;20969;-64
2024/03/21 00:39:42;;;;;;;9.10;7.33;;;8.40;99.90;;;;;;5058329;28;20494;-64
2024/03/21 00:42:10;;;;;;;11.60;8.17;;;8.40;99.90;;;;;;5058268;28;20504;-64
2024/03/21 00:44:37;;;;;;;11.20;7.27;;;8.40;99.90;;;;;;5057990;28;20552;-64
2024/03/21 00:47:04;;;;;;;10.37;7.23;;;8.30;53.90;;;;;;5058007;28;20458;-64
2024/03/21 00:49:31;;;;;;;10.47;7.10;;;8.20;99.80;;;;;;5058188;28;20600;-64
2024/03/21 00:51:57;;;;;;;10.30;7.77;;;8.10;99.90;;;;;;5058228;28;20758;-65
2024/03/21 00:54:25;;;;;;;9.63;8.63;;;8.10;99.90;;;;;;5057553;28;20465;-65
2024/03/21 00:56:51;;;;;;;9.17;7.67;;;8.00;99.90;;;;;;5057876;28;20880;-64
2024/03/21 00:59:21;;;;;;;12.00;8.37;;;8.00;95.90;;;;;;5057919;28;20553;-64
2024/03/21 01:01:47;;;;;;;9.00;8.07;;;8.00;99.90;;;;;;5057991;28;20463;-65
2024/03/21 01:04:15;;;;;;;9.50;8.33;;;8.00;99.90;;;;;;5057992;28;20518;-64
2024/03/21 01:06:41;;;;;;;9.30;7.70;;;7.90;99.90;;;;;;5057663;28;20556;-64
2024/03/21 01:09:09;;;;;;;9.43;7.70;;;7.90;99.90;;;;;;5057564;28;20458;-65
2024/03/21 01:11:36;;;;;;;10.20;8.30;;;7.80;99.90;;;;;;5057935;28;20466;-64
2024/03/21 01:14:03;;;;;;;11.90;8.10;;;7.80;99.90;;;;;;5057784;28;20828;-64
2024/03/21 01:16:31;;;;;;;10.23;8.00;;;7.70;99.90;;;;;;5057267;28;20498;-64
2024/03/21 01:18:59;;;;;;;13.70;8.27;;;7.70;99.90;;;;;;5057533;28;20772;-64
2024/03/21 01:21:26;;;;;;;9.33;7.37;;;7.60;99.90;;;;;;5057234;28;20490;-64
2024/03/21 01:23:54;;;;;;;10.43;8.17;;;7.70;99.90;;;;;;5056967;28;20486;-64
2024/03/21 01:26:20;;;;;;;9.90;7.40;;;7.80;99.90;;;;;;5056748;28;20465;-64
2024/03/21 01:28:47;;;;;;;15.27;8.37;;;7.80;99.90;;;;;;5056972;28;20496;-64
2024/03/21 01:31:16;;;;;;;11.37;7.50;;;7.80;99.90;;;;;;5057284;28;20917;-64
2024/03/21 01:33:45;;;;;;;14.53;8.80;;;7.90;99.90;;;;;;5056861;28;20458;-64
2024/03/21 01:36:12;;;;;;;11.40;8.00;;;7.90;99.90;;;;;;5056943;28;20496;-64
2024/03/21 01:38:39;;;;;;;11.03;8.33;;;7.90;99.90;;;;;;5056029;28;20457;-64
2024/03/21 01:41:06;;;;;;;10.47;7.30;;;8.00;99.90;;;;;;5056309;28;20836;-64
2024/03/21 01:43:34;;;;;;;12.40;9.03;;;8.10;99.90;;;;;;5056515;28;20789;-64
2024/03/21 01:46:13;;;;;;;10.03;8.03;;;8.10;99.90;;;;;;5056302;28;20498;-64
2024/03/21 01:48:42;;;;;;;11.03;8.53;;;8.20;99.90;;;;;;5055794;28;20446;-64
2024/03/21 01:51:10;;;;;;;9.60;8.60;;;8.20;99.90;;;;;;5056890;28;20541;-64
2024/03/21 01:53:38;;;;;;;11.93;8.17;;;8.10;99.90;;;;;;5057448;28;20466;-64
2024/03/21 01:56:05;;;;;;;11.63;9.70;;;8.20;99.90;;;;;;5057028;28;20508;-64
2024/03/21 01:58:32;;;;;;;10.23;8.43;;;8.20;99.90;;;;;;5057241;28;20462;-64
2024/03/21 02:01:21;;;;;;;12.60;9.77;;;8.10;99.90;;;;;;5057012;28;20545;-64
2024/03/21 02:07:15;;;;;;;9.83;8.60;;;8.10;97.60;;;;;;5056830;28;20409;-64
2024/03/21 02:09:41;;;;;;;11.87;9.47;;;8.00;97.20;;;;;;5184332;22;20840;-61
2024/03/21 02:12:09;;;;;;;11.43;8.27;;;7.90;99.90;;;;;;5076895;28;20548;-60
2024/03/21 02:14:37;;;;;;;11.17;9.03;;;7.90;99.90;;;;;;5077201;28;20458;-60
2024/03/21 02:18:00;;;;;;;10.83;7.30;;;7.80;99.90;;;;;;5077411;28;20469;-61
2024/03/21 02:20:27;;;;;;;12.27;9.10;;;7.80;99.90;;;;;;5077306;28;20457;-60
2024/03/21 02:22:55;;;;;;;13.10;9.07;;;7.90;99.90;;;;;;5076815;28;20790;-60
2024/03/21 02:25:22;;;;;;;10.33;8.37;;;7.90;99.90;;;;;;5076808;28;20552;-60
2024/03/21 02:27:49;;;;;;;9.60;8.53;;;7.90;99.90;;;;;;5076963;28;20483;-61
2024/03/21 02:30:16;;;;;;;12.20;8.13;;;7.90;99.90;;;;;;5076839;28;20461;-60
2024/03/21 02:32:43;;;;;;;10.70;9.60;;;8.00;99.90;;;;;;5077246;28;20557;-60
2024/03/21 02:35:09;;;;;;;11.00;8.93;;;8.00;99.90;;;;;;5076663;28;20543;-61
2024/03/21 02:37:37;;;;;;;12.20;9.37;;;8.10;99.90;;;;;;5076605;28;20507;-60
2024/03/21 02:40:06;;;;;;;10.60;8.43;;;8.10;99.90;;;;;;5076871;28;20809;-60
2024/03/21 02:42:33;;;;;;;9.90;8.70;;;8.10;1.00;;;;;;5076324;28;20465;-60
2024/03/21 02:44:59;;;;;;;11.37;9.10;;;8.10;1.00;;;;;;5078466;28;20894;-60
2024/03/21 02:47:26;;;;;;;12.17;8.97;;;8.10;1.00;;;;;;5080421;28;20709;-60
2024/03/21 02:49:53;;;;;;;12.93;9.00;;;8.00;99.90;;;;;;5080222;28;20731;-60
2024/03/21 02:52:20;;;;;;;10.87;9.27;;;8.00;1.00;;;;;;5080656;28;20796;-60
2024/03/21 02:54:46;;;;;;;11.30;8.63;;;8.10;1.00;;;;;;5080128;28;20555;-60
2024/03/21 02:57:16;;;;;;;11.30;9.93;;;8.10;1.00;;;;;;5080614;28;20463;-60
2024/03/21 03:00:32;;;;;;;12.53;9.03;;;8.10;1.00;;;;;;5079909;28;20556;-60
2024/03/21 03:02:59;;;;;;;11.70;8.40;;;8.10;99.90;;;;;;5079745;28;20491;-60
2024/03/21 03:05:25;;;;;;;11.67;9.00;;;8.10;99.90;;;;;;5079675;28;20458;-61
2024/03/21 03:07:52;;;;;;;10.47;9.07;;;8.10;1.00;;;;;;5079739;28;20565;-60
2024/03/21 03:10:19;;;;;;;10.63;9.07;;;8.10;99.90;;;;;;5079743;28;20964;-61
2024/03/21 03:12:49;;;;;;;10.63;8.97;;;8.10;99.90;;;;;;5080273;28;20900;-60
2024/03/21 03:15:15;;;;;;;12.40;9.57;;;8.10;99.90;;;;;;5080101;28;20889;-60
2024/03/21 03:17:42;;;;;;;11.33;8.80;;;7.90;1.00;;;;;;5079687;28;20509;-60
2024/03/21 03:20:09;;;;;;;10.70;9.40;;;8.00;1.00;;;;;;5079521;28;20501;-60
2024/03/21 03:22:36;;;;;;;11.23;8.73;;;7.90;1.00;;;;;;5079997;28;20461;-60
2024/03/21 03:25:03;;;;;;;10.30;8.67;;;7.90;1.00;;;;;;5079612;28;20489;-61
2024/03/21 03:27:30;;;;;;;9.93;8.13;;;8.00;1.00;;;;;;5079668;28;20737;-61
2024/03/21 03:29:57;;;;;;;11.13;9.20;;;8.00;1.00;;;;;;5079595;28;20560;-60
2024/03/21 03:32:25;;;;;;;12.60;9.43;;;8.00;1.00;;;;;;5079922;28;20878;-60
2024/03/21 03:37:36;;;;;;;10.60;9.50;;;8.00;1.00;;;;;;5079020;28;20432;-60
2024/03/21 03:40:04;;;;;;;12.33;9.30;;;8.00;1.00;;;;;;5079337;28;20530;-61
2024/03/21 03:42:31;;;;;;;9.97;8.97;;;8.00;1.00;;;;;;5079716;28;20893;-60
2024/03/21 03:45:00;;;;;;;14.07;9.80;;;8.00;1.00;;;;;;5079388;28;20493;-61
2024/03/21 03:47:27;;;;;;;12.57;9.77;;;8.00;99.90;;;;;;5079088;28;20493;-60
2024/03/21 03:49:54;;;;;;;12.03;9.00;;;8.00;99.90;;;;;;5078916;28;20553;-61
2024/03/21 03:52:21;;;;;;;14.40;10.33;;;8.00;1.00;;;;;;5079776;28;20461;-61
2024/03/21 03:54:47;;;;;;;11.50;9.40;;;8.00;1.00;;;;;;5079212;28;20882;-61
2024/03/21 03:57:14;;;;;;;12.87;9.00;;;8.00;1.00;;;;;;5078851;28;20461;-60
2024/03/21 03:59:40;;;;;;;10.70;9.60;;;7.90;1.00;;;;;;5079145;28;20988;-60
2024/03/21 04:02:09;;;;;;;11.53;9.87;;;7.80;1.00;;;;;;5079179;28;20916;-60
2024/03/21 04:04:35;;;;;;;11.07;9.80;;;7.80;1.00;;;;;;5078226;28;20499;-61
2024/03/21 04:07:02;;;;;;;12.90;9.30;;;7.80;1.00;;;;;;5079439;28;20456;-60
2024/03/21 04:09:29;;;;;;;11.40;9.30;;;7.80;1.00;;;;;;5078271;28;20521;-60
2024/03/21 04:11:57;;;;;;;11.03;9.90;;;7.90;1.00;;;;;;5079012;28;20733;-60
2024/03/21 04:14:23;;;;;;;10.63;8.77;;;7.90;1.00;;;;;;5078655;28;20507;-61
2024/03/21 04:16:50;;;;;;;9.77;8.77;;;7.90;1.00;;;;;;5079279;28;20457;-60
2024/03/21 04:19:18;;;;;;;14.90;10.07;;;7.90;1.00;;;;;;5078823;28;20797;-62
2024/03/21 04:21:45;;;;;;;11.63;9.60;;;7.90;1.00;;;;;;5078612;28;20471;-61
2024/03/21 04:24:11;;;;;;;10.43;9.33;;;7.90;1.00;;;;;;5078343;28;20532;-61
2024/03/21 04:26:39;;;;;;;11.97;10.00;;;8.00;1.00;;;;;;5078837;28;20512;-61
2024/03/21 04:29:05;;;;;;;13.20;10.10;;;8.00;1.00;;;;;;5078478;28;20457;-62
2024/03/21 04:31:32;;;;;;;10.43;9.17;;;8.00;1.00;;;;;;5078250;28;20493;-61
2024/03/21 04:33:58;;;;;;;11.80;9.87;;;8.10;99.90;;;;;;5082178;28;20484;-62
2024/03/21 04:36:27;;;;;;;14.17;10.40;;;8.20;1.00;;;;;;5098597;28;20464;-61
2024/03/21 04:38:54;;;;;;;11.80;9.07;;;8.20;99.90;;;;;;5098617;28;20491;-61
2024/03/21 04:41:21;;;;;;;12.07;9.73;;;8.20;99.90;;;;;;5098182;28;20589;-61
2024/03/21 04:43:49;;;;;;;11.40;10.03;;;8.10;99.90;;;;;;5098001;28;20466;-61
2024/03/21 04:46:16;;;;;;;12.30;9.60;;;8.20;99.90;;;;;;5098455;28;20493;-62
2024/03/21 04:48:43;;;;;;;11.87;9.30;;;8.30;99.90;;;;;;5098351;28;20509;-61
2024/03/21 04:51:10;;;;;;;11.13;10.03;;;8.30;99.90;;;;;;5098068;28;20543;-61
2024/03/21 04:53:38;;;;;;;11.80;9.50;;;8.30;99.90;;;;;;5098141;28;20555;-62
2024/03/21 04:56:06;;;;;;;12.93;9.83;;;8.30;1.00;;;;;;5098364;28;20467;-61
2024/03/21 04:58:32;;;;;;;17.00;9.77;;;8.30;99.90;;;;;;5097949;28;20518;-61
2024/03/21 05:01:00;;;;;;;11.87;9.80;;;8.20;99.90;;;;;;5098132;28;20456;-62
2024/03/21 05:03:26;;;;;;;13.87;10.30;;;8.20;69.20;;;;;;5097626;28;20488;-62
2024/03/21 05:05:53;;;;;;;15.70;9.83;;;8.30;1.00;;;;;;5097526;28;20510;-62
2024/03/21 05:08:19;;;;;;;12.07;10.07;;;8.20;1.00;;;;;;5096960;28;20498;-61
2024/03/21 05:10:48;;;;;;;14.57;10.77;;;8.30;99.90;;;;;;5097485;28;20488;-60
2024/03/21 05:13:14;;;;;;;10.20;9.17;;;8.30;99.90;;;;;;5097410;28;20924;-58
2024/03/21 05:15:49;;;;;;;13.90;9.70;;;8.30;99.90;;;;;;5097577;28;20724;-58
2024/03/21 05:18:16;;;;;;;12.80;9.73;;;8.20;99.90;;;;;;5097837;28;20494;-57
2024/03/21 05:20:43;;;;;;;15.20;10.37;;;8.10;99.90;;;;;;5098105;28;20464;-58
2024/03/21 05:23:10;;;;;;;12.87;10.00;;;8.10;99.90;;;;;;5098026;28;20768;-59
2024/03/21 05:25:36;;;;;;;13.23;10.97;;;8.10;99.90;;;;;;5097863;28;20483;-59
2024/03/21 05:28:06;;;;;;;13.63;10.63;;;8.00;99.90;;;;;;5097993;28;20456;-59
2024/03/21 05:30:32;;;;;;;18.97;13.97;;;8.10;99.90;;;;;;5097700;28;20901;-58
2024/03/21 05:32:59;;;;;;;18.07;12.27;;;8.20;99.90;;;;;;5098045;28;20492;-58
2024/03/21 05:35:25;;;;;;;21.07;15.20;;;8.10;99.90;;;;;;5097326;28;20530;-58
2024/03/21 05:37:52;;;;;;;18.40;15.30;;;8.10;99.90;;;;;;5097615;28;20560;-58
2024/03/21 05:40:19;;;;;;;21.33;16.70;;;8.10;99.90;;;;;;5097703;28;20554;-58
2024/03/21 05:42:47;;;;;;;22.03;17.37;;;8.10;99.90;;;;;;5091164;28;20454;-59
2024/03/21 05:45:15;;;;;;;22.30;18.30;;;8.10;99.90;;;;;;5076983;28;20491;-59
2024/03/21 05:47:42;;;;;;;24.77;18.33;;;8.20;99.90;;;;;;5077483;28;20466;-59
2024/03/21 05:50:11;;;;;;;27.10;20.17;;;8.30;99.90;;;;;;5076456;28;20480;-58
2024/03/21 05:52:49;;;;;;;31.30;19.97;;;8.30;1.00;;;;;;5076892;28;20465;-59
2024/03/21 05:55:17;;;;;;;24.60;19.60;;;8.40;1.00;;;;;;5076436;28;20454;-59
2024/03/21 05:57:47;;;;;;;33.90;24.70;;;8.50;1.00;;;;;;5076414;28;20821;-59
2024/03/21 06:00:17;;;;;;;39.57;29.00;;;8.60;99.90;;;;;;5076559;28;20473;-59
2024/03/21 06:02:53;;;;;;;37.50;28.97;;;8.90;1.00;;;;;;5077009;28;20522;-64
2024/03/21 06:05:20;;;;;;;41.63;29.13;;;9.10;99.90;;;;;;5076592;28;20492;-64
2024/03/21 06:07:52;;;;;;;43.07;30.40;;;9.20;99.90;;;;;;5076632;28;20511;-64
2024/03/21 06:10:18;;;;;;;37.27;29.03;;;9.40;99.90;;;;;;5076836;28;20880;-58
2024/03/21 06:12:47;;;;;;;37.93;27.53;;;9.40;99.90;;;;;;5076917;28;20428;-59
2024/03/21 06:15:15;;;;;;;33.97;27.30;;;9.40;99.90;;;;;;5076936;28;20457;-59
2024/03/21 06:17:53;;;;;;;38.40;29.60;;;9.50;99.90;;;;;;5075719;28;20627;-59
2024/03/21 06:20:29;;;;;;;34.40;27.63;;;9.60;1.00;;;;;;5078771;28;20820;-58
2024/03/21 06:23:10;;;;;;;35.20;27.47;;;9.60;1.00;;;;;;5079519;28;20435;-59
2024/03/21 06:25:39;;;;;;;32.63;26.97;;;9.80;1.00;;;;;;5080866;28;20878;-59
2024/03/21 06:28:10;;;;;;;35.93;27.40;;;9.90;67.50;;;;;;5080770;28;20464;-59
2024/03/21 06:30:39;;;;;;;38.67;28.67;;;9.90;1.00;;;;;;5080136;28;20525;-59
2024/03/21 06:33:09;;;;;;;33.83;25.97;;;10.00;1.00;;;;;;5080511;28;20472;-59
2024/03/21 06:35:35;;;;;;;35.17;25.13;;;10.10;1.00;;;;;;5080221;28;20457;-59
2024/03/21 06:38:02;;;;;;;36.23;26.40;;;10.20;1.00;;;;;;5078903;28;20453;-59
2024/03/21 06:40:36;;;;;;;32.93;26.10;;;10.20;99.90;;;;;;5078890;28;20490;-59
2024/03/21 06:43:17;;;;;;;35.63;25.77;;;10.30;99.90;;;;;;5078454;28;20460;-59
2024/03/21 06:45:53;;;;;;;32.47;25.43;;;10.30;99.90;;;;;;5078941;28;20453;-59
2024/03/21 06:48:23;;;;;;;31.00;24.80;;;10.40;99.90;;;;;;5080749;28;20901;-59
2024/03/21 06:50:50;;;;;;;34.03;25.60;;;10.50;99.90;;;;;;5080105;28;20853;-59
2024/03/21 06:53:18;;;;;;;31.53;24.13;;;10.40;3.20;;;;;;5096873;28;20880;-59
2024/03/21 06:55:52;;;;;;;31.90;25.33;;;10.40;1.00;;;;;;5099885;28;20452;-59
2024/03/21 06:58:19;;;;;;;29.60;24.70;;;10.50;1.00;;;;;;5099816;28;20744;-59
2024/03/21 07:00:47;;;;;;;33.30;26.23;;;10.60;1.00;;;;;;5099015;28;20452;-59
2024/03/21 07:03:25;;;;;;;28.50;25.40;;;10.60;1.00;;;;;;5098573;28;20896;-60
2024/03/21 07:06:00;;;;;;;33.90;26.30;;;10.70;1.00;;;;;;5097856;28;20459;-59
2024/03/21 07:08:32;;;;;;;32.37;25.70;;;10.70;99.90;;;;;;5098281;28;20896;-59
2024/03/21 07:11:07;;;;;;;29.07;24.07;;;10.80;1.00;;;;;;5058199;28;20823;-59
2024/03/21 07:13:38;;;;;;;35.33;27.63;;;10.90;99.90;;;;;;5057747;28;20507;-60
2024/03/21 07:16:05;;;;;;;32.60;28.47;;;11.00;99.90;;;;;;5058285;28;20434;-60
2024/03/21 07:18:36;;;;;;;32.93;28.27;;;11.00;99.90;;;;;;5034225;28;20962;-59
2024/03/21 07:21:03;;;;;;;35.47;28.43;;;10.80;1.00;;;;;;5038506;28;20461;-58
2024/03/21 07:23:35;;;;;;;35.90;29.00;;;10.80;99.90;;;;;;5038634;28;20458;-60
2024/03/21 07:26:02;;;;;;;37.07;31.90;;;10.90;1.00;;;;;;5038112;28;20470;-59
2024/03/21 07:28:30;;;;;;;33.87;29.97;;;10.90;99.90;;;;;;5038105;28;20560;-59
2024/03/21 07:30:58;;;;;;;37.83;31.90;;;10.90;99.90;;;;;;5037356;28;20501;-59
2024/03/21 07:33:28;;;;;;;35.40;31.60;;;11.00;99.90;;;;;;5038546;28;20549;-59
2024/03/21 07:36:02;;;;;;;33.77;28.10;;;11.00;99.90;;;;;;5038899;28;20463;-59
2024/03/21 07:38:30;;;;;;;31.63;28.13;;;11.00;99.90;;;;;;5038890;28;20777;-59
2024/03/21 07:40:57;;;;;;;33.00;27.03;;;11.10;94.80;;;;;;5039267;28;20769;-60
2024/03/21 07:43:25;;;;;;;29.47;24.07;;;11.10;26.80;;;;;;5028754;28;20456;-59
2024/03/21 07:46:05;;;;;;;26.90;21.53;;;11.30;1.00;;;;;;5018324;28;20498;-60
2024/03/21 07:48:47;;;;;;;28.87;24.33;;;11.30;99.90;;;;;;5017958;28;21121;-59
2024/03/21 07:51:15;;;;;;;30.87;23.77;;;11.30;99.90;;;;;;5017744;28;20769;-59
2024/03/21 07:53:43;;;;;;;30.53;23.40;;;11.40;1.00;;;;;;5017652;28;20439;-59
2024/03/21 07:56:09;;;;;;;28.30;25.20;;;11.20;99.90;;;;;;5017976;28;20508;-60
2024/03/21 07:58:36;;;;;;;29.43;26.23;;;11.00;99.90;;;;;;5017869;28;20901;-59
2024/03/21 08:01:06;;;;;;;30.20;23.70;;;11.20;1.00;;;;;;5018889;28;20485;-60
2024/03/21 08:03:35;;;;;;;28.57;23.17;;;11.00;99.90;;;;;;5031653;28;20469;-59
2024/03/21 08:06:01;;;;;;;26.03;21.33;;;11.20;1.00;;;;;;5019499;28;20499;-60
2024/03/21 08:08:38;;;;;;;23.80;21.27;;;11.30;99.90;;;;;;5018132;28;20458;-60
2024/03/21 08:11:07;;;;;;;22.90;20.43;;;11.40;99.90;;;;;;5038068;28;20528;-59
2024/03/21 08:13:34;;;;;;;24.73;21.43;;;11.50;99.90;;;;;;5038596;28;20502;-59
2024/03/21 08:16:01;;;;;;;25.13;21.43;;;11.80;99.90;;;;;;5038550;28;20463;-59
2024/03/21 08:18:29;;;;;;;22.07;19.60;;;11.80;1.00;;;;;;5038693;28;20459;-59
2024/03/21 08:20:58;;;;;;;18.87;16.87;;;11.80;1.00;;;;;;5038163;28;20487;-59
2024/03/21 08:23:26;;;;;;;18.43;16.60;;;11.70;1.00;;;;;;5038041;28;20471;-61
2024/03/21 08:25:54;;;;;;;19.43;16.63;;;11.50;1.00;;;;;;5036993;28;20491;-60
2024/03/21 08:28:20;;;;;;;18.57;16.57;;;11.50;1.00;;;;;;5036795;28;20477;-60
2024/03/21 08:30:47;;;;;;;17.17;15.43;;;11.30;1.00;;;;;;5036836;28;20629;-59
2024/03/21 08:33:15;;;;;;;16.53;14.83;;;11.50;99.90;;;;;;5037104;28;20713;-60
2024/03/21 08:35:43;;;;;;;17.93;14.47;;;11.50;1.00;;;;;;5037414;28;20459;-60
2024/03/21 08:38:11;;;;;;;18.50;15.20;;;11.30;1.00;;;;;;5036805;28;20441;-59
2024/03/21 08:40:38;;;;;;;14.20;12.20;;;11.30;1.00;;;;;;5037020;28;20559;-59
2024/03/21 08:43:05;;;;;;;16.13;13.70;;;11.50;1.00;;;;;;5036416;28;20463;-59
2024/03/21 08:45:32;;;;;;;14.47;12.10;;;11.60;99.90;;;;;;5036629;28;20919;-59
2024/03/21 08:48:00;;;;;;;15.57;13.87;;;11.60;99.90;;;;;;5036979;28;20942;-59
2024/03/21 08:50:27;;;;;;;15.50;13.90;;;11.30;99.90;;;;;;5036707;28;20532;-59
2024/03/21 08:52:53;;;;;;;16.37;12.00;;;11.10;1.00;;;;;;5036607;28;20751;-59
2024/03/21 08:55:22;;;;;;;15.60;13.50;;;11.20;1.00;;;;;;5037824;28;20455;-59
2024/03/21 08:57:50;;;;;;;14.50;13.00;;;11.40;1.00;;;;;;5037993;28;20562;-59
2024/03/21 09:00:18;;;;;;;12.87;11.50;;;11.60;1.00;;;;;;5037742;28;20459;-59
2024/03/21 09:02:44;;;;;;;14.80;12.33;;;11.90;1.00;;;;;;5037890;28;20463;-59
2024/03/21 09:05:11;;;;;;;13.00;11.70;;;11.80;1.00;;;;;;5038302;28;20495;-59
2024/03/21 09:07:38;;;;;;;12.57;11.37;;;11.60;99.90;;;;;;5037926;28;20831;-60
2024/03/21 09:10:05;;;;;;;12.17;10.77;;;11.50;99.90;;;;;;5049884;28;20533;-59
2024/03/21 09:12:33;;;;;;;11.20;10.10;;;11.50;99.90;;;;;;5058122;28;20938;-60
2024/03/21 09:15:01;;;;;;;10.73;9.50;;;11.90;99.90;;;;;;5057551;28;20458;-60
2024/03/21 09:17:27;;;;;;;11.10;9.93;;;11.80;99.90;;;;;;5057388;28;20459;-59
2024/03/21 09:19:54;;;;;;;10.33;9.33;;;11.50;99.90;;;;;;5057476;28;20462;-59
2024/03/21 09:22:20;;;;;;;8.67;7.70;;;11.60;99.90;;;;;;5057516;28;20516;-59
2024/03/21 09:24:49;;;;;;;9.27;8.37;;;12.10;99.90;;;;;;5057646;28;20984;-59
2024/03/21 09:27:15;;;;;;;9.50;8.60;;;12.20;1.00;;;;;;5057576;28;20763;-59
2024/03/21 09:29:45;;;;;;;10.30;9.20;;;12.60;99.90;;;;;;5057398;28;20458;-59
2024/03/21 09:32:11;;;;;;;10.30;9.20;;;12.70;99.90;;;;;;5057054;28;20469;-59
2024/03/21 09:34:38;;;;;;;11.57;9.17;;;12.60;99.90;;;;;;5057363;28;20875;-59
2024/03/21 09:37:04;;;;;;;11.90;10.37;;;12.70;1.00;;;;;;5057365;28;20814;-59
2024/03/21 09:39:32;;;;;;;9.37;8.57;;;13.30;1.00;;;;;;5057413;28;20465;-59
2024/03/21 09:41:58;;;;;;;10.87;8.80;;;13.50;1.00;;;;;;5057440;28;20921;-59
2024/03/21 09:44:26;;;;;;;10.73;9.63;;;13.00;99.90;;;;;;5057536;28;20586;-59
2024/03/21 09:46:55;;;;;;;10.43;9.40;;;12.80;99.90;;;;;;5057665;28;20850;-59
2024/03/21 09:49:22;;;;;;;12.40;11.10;;;12.90;99.90;;;;;;5057107;28;20743;-59
2024/03/21 09:51:49;;;;;;;11.57;10.37;;;13.40;1.00;;;;;;5057289;28;20917;-59
2024/03/21 09:54:16;;;;;;;14.50;13.00;;;13.50;99.90;;;;;;5056599;28;20925;-59
2024/03/21 09:56:43;;;;;;;14.40;12.90;;;14.10;1.00;;;;;;5056931;28;20806;-59
2024/03/21 09:59:13;;;;;;;12.40;11.10;;;14.00;68.50;;;;;;5057327;28;20519;-60
2024/03/21 10:01:40;;;;;;;10.70;9.60;;;14.80;99.90;;;;;;5056840;28;20466;-60
2024/03/21 10:04:08;;;;;;;9.80;8.90;;;14.30;99.90;;;;;;5056925;28;20886;-60
2024/03/21 10:06:44;;;;;;;10.27;9.20;;;14.10;22.40;;;;;;5056995;28;20462;-60
2024/03/21 10:09:14;;;;;;;9.27;8.37;;;14.40;1.00;;;;;;5057072;28;20558;-60
2024/03/21 10:11:41;;;;;;;13.17;10.67;;;14.50;99.90;;;;;;5056496;28;20875;-60
2024/03/21 10:14:12;;;;;;;9.00;8.10;;;15.10;99.90;;;;;;5057075;28;20462;-61
2024/03/21 10:16:40;;;;;;;8.93;8.10;;;15.00;99.90;;;;;;5056384;28;20458;-59
2024/03/21 10:19:11;;;;;;;10.23;9.33;;;14.10;1.00;;;;;;5057260;28;20458;-59
2024/03/21 10:21:37;;;;;;;10.50;9.40;;;13.90;9.30;;;;;;5056674;28;20462;-60
2024/03/21 10:24:05;;;;;;;14.13;11.47;;;14.40;31.60;;;;;;5057018;28;20458;-60
2024/03/21 10:26:33;;;;;;;11.67;10.57;;;14.90;1.00;;;;;;5056630;28;20462;-59
2024/03/21 10:29:00;;;;;;;10.70;9.43;;;14.90;1.00;;;;;;5056991;28;20458;-59
2024/03/21 10:31:27;;;;;;;10.50;9.60;;;14.50;1.00;;;;;;5056766;28;20740;-59
2024/03/21 10:33:55;;;;;;;10.50;9.40;;;13.50;1.00;;;;;;5056873;28;20822;-59
2024/03/21 10:36:23;;;;;;;11.43;10.43;;;13.20;1.00;;;;;;5068657;28;20458;-60
2024/03/21 10:38:52;;;;;;;13.63;12.33;;;13.70;1.00;;;;;;5076898;28;20914;-60
2024/03/21 10:41:21;;;;;;;17.93;16.23;;;13.90;1.00;;;;;;5075838;28;20461;-59
2024/03/21 10:43:54;;;;;;;18.50;16.60;;;13.80;1.00;;;;;;5076522;28;20475;-59
2024/03/21 10:46:23;;;;;;;22.43;20.43;;;14.30;39.00;;;;;;5076553;28;20580;-59
2024/03/21 10:48:51;;;;;;;14.57;13.37;;;15.00;47.70;;;;;;5076751;28;20521;-61
2024/03/21 10:51:20;;;;;;;14.57;13.10;;;14.80;69.40;;;;;;5076125;28;20453;-59
2024/03/21 10:53:56;;;;;;;18.77;16.87;;;15.00;41.80;;;;;;5075970;28;20520;-60
2024/03/21 10:56:24;;;;;;;17.00;15.40;;;15.70;15.90;;;;;;5075415;28;20460;-59
2024/03/21 10:58:57;;;;;;;25.57;23.27;;;15.30;1.00;;;;;;5075350;28;20512;-61
2024/03/21 11:01:37;;;;;;;25.67;23.37;;;13.70;1.00;;;;;;5074584;28;20468;-59
2024/03/21 11:04:06;;;;;;;29.07;26.20;;;13.20;1.00;;;;;;5077372;28;20459;-60
2024/03/21 11:06:34;;;;;;;34.70;31.20;;;13.30;1.00;;;;;;5078495;28;20791;-60
2024/03/21 11:09:04;;;;;;;39.20;35.10;;;13.40;1.00;;;;;;5085910;28;20563;-59
2024/03/21 11:11:31;;;;;;;45.03;40.13;;;13.40;1.00;;;;;;5088627;28;20453;-59
2024/03/21 11:14:02;;;;;;;45.90;41.20;;;13.20;19.60;;;;;;5086859;28;20895;-59
2024/03/21 11:16:28;;;;;;;39.73;34.97;;;13.70;1.00;;;;;;5078906;28;20797;-59
2024/03/21 11:18:56;;;;;;;41.17;36.77;;;14.20;1.00;;;;;;5079754;28;20453;-62
2024/03/21 11:21:23;;;;;;;44.00;39.47;;;14.20;1.00;;;;;;5079600;28;20806;-62
2024/03/21 11:23:50;;;;;;;44.17;39.47;;;14.30;1.00;;;;;;5078296;28;20522;-60
2024/03/21 11:26:19;;;;;;;52.33;44.37;;;14.90;11.70;;;;;;5057321;28;20485;-61
2024/03/21 11:28:50;;;;;;;50.00;44.73;;;14.90;13.20;;;;;;5057020;28;20466;-60
2024/03/21 11:31:20;;;;;;;48.53;43.40;;;15.30;21.10;;;;;;5057325;28;20864;-61
2024/03/21 11:33:48;;;;;;;51.27;45.87;;;15.30;1.00;;;;;;5057336;28;20568;-61
2024/03/21 11:36:16;;;;;;;50.53;45.03;;;15.00;1.00;;;;;;5057411;28;20524;-62
2024/03/21 11:38:44;;;;;;;46.93;41.83;;;15.00;1.00;;;;;;5057089;28;20466;-61
2024/03/21 11:41:19;;;;;;;47.47;42.53;;;15.40;1.00;;;;;;5058025;28;20569;-61
2024/03/21 11:43:50;;;;;;;51.07;45.63;;;15.50;1.00;;;;;;5058102;28;20462;-61
2024/03/21 11:46:19;;;;;;;51.20;45.70;;;14.80;1.00;;;;;;5057501;28;20486;-60
2024/03/21 11:49:00;;;;;;;48.77;43.67;;;14.10;1.00;;;;;;5057646;28;20458;-61
2024/03/21 11:51:26;;;;;;;48.20;43.20;;;13.70;1.00;;;;;;5057507;28;20461;-60
2024/03/21 11:53:53;;;;;;;45.90;41.17;;;14.30;1.00;;;;;;5057946;28;20875;-60
2024/03/21 11:56:21;;;;;;;45.53;40.90;;;14.60;1.00;;;;;;5058037;28;20476;-59
2024/03/21 11:58:49;;;;;;;48.27;43.33;;;14.80;1.00;;;;;;5059427;28;20532;-59
2024/03/21 12:01:15;;;;;;;45.30;40.50;;;14.50;1.00;;;;;;5059337;28;20789;-59
2024/03/21 12:03:42;;;;;;;41.97;37.73;;;14.50;1.00;;;;;;5058309;28;20508;-60
2024/03/21 12:06:09;;;;;;;43.90;39.40;;;14.70;1.00;;;;;;5058599;28;20501;-60
2024/03/21 12:08:40;;;;;;;41.33;37.13;;;14.10;1.00;;;;;;5059077;28;20907;-59
2024/03/21 12:11:12;;;;;;;40.30;36.20;;;13.80;1.00;;;;;;5059107;28;20494;-60
2024/03/21 12:13:41;;;;;;;42.23;37.80;;;14.40;1.00;;;;;;5058302;28;20818;-59
2024/03/21 12:16:11;;;;;;;42.20;37.90;;;14.90;1.00;;;;;;5058628;28;20454;-59
2024/03/21 12:18:39;;;;;;;43.63;38.90;;;15.10;1.00;;;;;;5058058;28;20524;-59
2024/03/21 12:21:06;;;;;;;40.10;36.10;;;14.30;1.00;;;;;;5059989;28;20457;-59
2024/03/21 12:23:33;;;;;;;39.97;35.77;;;14.20;99.90;;;;;;5067918;28;20449;-59
2024/03/21 12:25:59;;;;;;;38.27;34.40;;;13.80;99.90;;;;;;5065124;28;20535;-59
2024/03/21 12:28:30;;;;;;;39.23;35.30;;;14.00;99.90;;;;;;5066087;28;20450;-59
2024/03/21 12:30:58;;;;;;;40.97;36.90;;;13.90;99.90;;;;;;5083597;28;20454;-59
2024/03/21 12:33:28;;;;;;;42.43;37.97;;;14.40;99.90;;;;;;5081465;28;20468;-59
2024/03/21 12:35:55;;;;;;;43.43;38.83;;;14.50;99.90;;;;;;5078180;28;20743;-59
2024/03/21 12:38:22;;;;;;;42.93;38.53;;;14.20;99.90;;;;;;5077361;28;20555;-59
2024/03/21 12:40:48;;;;;;;37.77;33.97;;;13.90;99.90;;;;;;5073147;28;20466;-58
2024/03/21 12:43:16;;;;;;;38.50;34.70;;;13.90;99.90;;;;;;5062758;28;20565;-60
2024/03/21 12:45:44;;;;;;;38.60;34.70;;;14.70;99.90;;;;;;5054589;28;20781;-60
2024/03/21 12:48:13;;;;;;;38.27;34.57;;;15.00;99.90;;;;;;5054834;28;20466;-59
2024/03/21 12:50:40;;;;;;;35.27;31.83;;;15.10;99.90;;;;;;5055092;28;20818;-60
2024/03/21 12:53:07;;;;;;;33.23;30.00;;;15.70;99.90;;;;;;5055714;28;20875;-59